sensor_id;sensor_type;location;lat;lon;timestamp;pressure;altitude;pressure_sealevel;temperature;humidity
62025;BME280;47978;49.118;12.146;2022-10-16T00:01:24;97464.78;;;14.17;100.00
62025;BME280;47978;49.118;12.146;2022-10-16T00:03:51;97464.28;;;14.15;100.00
62025;BME280;47978;49.118;12.146;2022-10-16T00:06:19;97468.38;;;14.18;100.00
62025;BME280;47978;49.118;12.146;2022-10-16T00:08:46;97465.91;;;14.16;100.00
62025;BME280;47978;49.118;12.146;2022-10-16T00:11:15;97467.88;;;14.16;100.00
62025;BME280;47978;49.118;12.146;2022-10-16T00:13:43;97482.59;;;14.16;100.00
62025;BME280;47978;49.118;12.146;2022-10-16T00:16:12;97478.69;;;14.17;100.00
62025;BME280;47978;49.118;12.146;2022-10-16T00:18:39;97484.41;;;14.21;100.00
62025;BME280;47978;49.118;12.146;2022-10-16T00:21:10;97484.56;;;14.25;100.00
62025;BME280;47978;49.118;12.146;2022-10-16T00:23:37;97486.03;;;14.22;100.00
62025;BME280;47978;49.118;12.146;2022-10-16T00:26:05;97488.00;;;14.22;100.00
62025;BME280;47978;49.118;12.146;2022-10-16T00:28:33;97481.63;;;14.21;100.00
62025;BME280;47978;49.118;12.146;2022-10-16T00:31:03;97484.91;;;14.23;100.00
62025;BME280;47978;49.118;12.146;2022-10-16T00:33:31;97481.47;;;14.26;100.00
62025;BME280;47978;49.118;12.146;2022-10-16T00:35:58;97482.28;;;14.27;100.00
62025;BME280;47978;49.118;12.146;2022-10-16T00:38:25;97487.03;;;14.26;100.00
62025;BME280;47978;49.118;12.146;2022-10-16T00:40:51;97483.75;;;14.24;100.00
62025;BME280;47978;49.118;12.146;2022-10-16T00:43:35;97478.50;;;14.23;100.00
62025;BME280;47978;49.118;12.146;2022-10-16T00:46:04;97475.72;;;14.23;100.00
62025;BME280;47978;49.118;12.146;2022-10-16T00:48:33;97474.09;;;14.22;100.00
62025;BME280;47978;49.118;12.146;2022-10-16T00:51:00;97478.84;;;14.21;100.00
62025;BME280;47978;49.118;12.146;2022-10-16T00:53:27;97466.56;;;14.22;100.00
62025;BME280;47978;49.118;12.146;2022-10-16T00:55:54;97469.03;;;14.24;100.00
62025;BME280;47978;49.118;12.146;2022-10-16T00:58:21;97469.50;;;14.26;100.00
62025;BME280;47978;49.118;12.146;2022-10-16T01:00:47;97472.47;;;14.21;100.00
62025;BME280;47978;49.118;12.146;2022-10-16T01:03:26;97475.41;;;14.15;100.00
62025;BME280;47978;49.118;12.146;2022-10-16T01:06:03;97473.31;;;14.12;100.00
62025;BME280;47978;49.118;12.146;2022-10-16T01:08:35;97480.66;;;14.08;100.00
62025;BME280;47978;49.118;12.146;2022-10-16T01:11:13;97483.63;;;14.12;100.00
62025;BME280;47978;49.118;12.146;2022-10-16T01:13:43;97474.44;;;14.11;100.00
62025;BME280;47978;49.118;12.146;2022-10-16T01:16:14;97470.66;;;14.16;100.00
62025;BME280;47978;49.118;12.146;2022-10-16T01:18:45;97469.72;;;14.12;100.00
62025;BME280;47978;49.118;12.146;2022-10-16T01:21:20;97466.56;;;14.13;100.00
62025;BME280;47978;49.118;12.146;2022-10-16T01:23:51;97463.16;;;14.08;100.00
62025;BME280;47978;49.118;12.146;2022-10-16T01:26:33;97472.50;;;14.03;100.00
62025;BME280;47978;49.118;12.146;2022-10-16T01:29:08;97489.34;;;14.07;100.00
62025;BME280;47978;49.118;12.146;2022-10-16T01:31:39;97496.22;;;14.09;100.00
62025;BME280;47978;49.118;12.146;2022-10-16T01:34:11;97503.75;;;14.09;100.00
62025;BME280;47978;49.118;12.146;2022-10-16T01:36:44;97504.72;;;14.04;100.00
62025;BME280;47978;49.118;12.146;2022-10-16T01:39:13;97504.38;;;13.97;100.00
62025;BME280;47978;49.118;12.146;2022-10-16T01:41:43;97505.53;;;13.96;100.00
62025;BME280;47978;49.118;12.146;2022-10-16T01:44:14;97500.78;;;13.97;100.00
62025;BME280;47978;49.118;12.146;2022-10-16T01:46:46;97505.22;;;13.98;100.00
62025;BME280;47978;49.118;12.146;2022-10-16T01:49:14;97508.66;;;13.94;100.00
62025;BME280;47978;49.118;12.146;2022-10-16T01:51:45;97516.50;;;13.92;100.00
62025;BME280;47978;49.118;12.146;2022-10-16T01:54:14;97504.88;;;13.90;100.00
62025;BME280;47978;49.118;12.146;2022-10-16T01:56:43;97506.19;;;13.93;100.00
62025;BME280;47978;49.118;12.146;2022-10-16T01:59:13;97503.41;;;13.93;100.00
62025;BME280;47978;49.118;12.146;2022-10-16T02:01:44;97498.16;;;13.91;100.00
62025;BME280;47978;49.118;12.146;2022-10-16T02:04:15;97502.09;;;13.90;100.00
62025;BME280;47978;49.118;12.146;2022-10-16T02:06:45;97515.69;;;13.92;100.00
62025;BME280;47978;49.118;12.146;2022-10-16T02:09:11;97497.34;;;13.91;100.00
62025;BME280;47978;49.118;12.146;2022-10-16T02:11:38;97509.63;;;13.90;100.00
62025;BME280;47978;49.118;12.146;2022-10-16T02:14:06;97512.56;;;13.85;100.00
62025;BME280;47978;49.118;12.146;2022-10-16T02:16:37;97523.19;;;13.83;100.00
62025;BME280;47978;49.118;12.146;2022-10-16T02:19:05;97515.03;;;13.86;100.00
62025;BME280;47978;49.118;12.146;2022-10-16T02:21:36;97516.66;;;13.87;100.00
62025;BME280;47978;49.118;12.146;2022-10-16T02:24:10;97510.94;;;13.84;100.00
62025;BME280;47978;49.118;12.146;2022-10-16T02:26:43;97514.03;;;13.82;100.00
62025;BME280;47978;49.118;12.146;2022-10-16T02:29:14;97514.69;;;13.79;100.00
62025;BME280;47978;49.118;12.146;2022-10-16T02:31:47;97520.25;;;13.79;100.00
62025;BME280;47978;49.118;12.146;2022-10-16T02:34:16;97525.50;;;13.81;100.00
62025;BME280;47978;49.118;12.146;2022-10-16T02:36:44;97519.09;;;13.80;100.00
62025;BME280;47978;49.118;12.146;2022-10-16T02:39:13;97512.41;;;13.81;100.00
62025;BME280;47978;49.118;12.146;2022-10-16T02:41:40;97523.38;;;13.86;100.00
62025;BME280;47978;49.118;12.146;2022-10-16T02:44:07;97521.72;;;13.85;100.00
62025;BME280;47978;49.118;12.146;2022-10-16T02:46:33;97526.63;;;13.80;100.00
62025;BME280;47978;49.118;12.146;2022-10-16T02:49:02;97525.00;;;13.79;100.00
62025;BME280;47978;49.118;12.146;2022-10-16T02:51:29;97528.75;;;13.74;100.00
62025;BME280;47978;49.118;12.146;2022-10-16T02:53:55;97539.84;;;13.74;100.00
62025;BME280;47978;49.118;12.146;2022-10-16T02:56:22;97530.06;;;13.77;100.00
62025;BME280;47978;49.118;12.146;2022-10-16T02:58:48;97539.19;;;13.77;100.00
62025;BME280;47978;49.118;12.146;2022-10-16T03:01:15;97542.81;;;13.78;100.00
62025;BME280;47978;49.118;12.146;2022-10-16T03:03:42;97541.31;;;13.80;100.00
62025;BME280;47978;49.118;12.146;2022-10-16T03:06:10;97539.69;;;13.79;100.00
62025;BME280;47978;49.118;12.146;2022-10-16T03:08:36;97534.94;;;13.80;100.00
62025;BME280;47978;49.118;12.146;2022-10-16T03:11:03;97530.06;;;13.77;100.00
62025;BME280;47978;49.118;12.146;2022-10-16T03:13:29;97525.66;;;13.76;100.00
62025;BME280;47978;49.118;12.146;2022-10-16T03:15:56;97534.94;;;13.80;100.00
62025;BME280;47978;49.118;12.146;2022-10-16T03:18:22;97536.63;;;13.81;100.00
62025;BME280;47978;49.118;12.146;2022-10-16T03:20:49;97536.63;;;13.81;100.00
62025;BME280;47978;49.118;12.146;2022-10-16T03:23:17;97539.38;;;13.81;100.00
62025;BME280;47978;49.118;12.146;2022-10-16T03:25:44;97545.91;;;13.85;100.00
62025;BME280;47978;49.118;12.146;2022-10-16T03:28:13;97542.81;;;13.86;100.00
62025;BME280;47978;49.118;12.146;2022-10-16T03:30:40;97552.94;;;13.91;100.00
62025;BME280;47978;49.118;12.146;2022-10-16T03:33:06;97544.59;;;13.91;100.00
62025;BME280;47978;49.118;12.146;2022-10-16T03:35:33;97542.47;;;13.88;100.00
62025;BME280;47978;49.118;12.146;2022-10-16T03:37:59;97543.28;;;13.88;100.00
62025;BME280;47978;49.118;12.146;2022-10-16T03:40:27;97547.22;;;13.87;100.00
62025;BME280;47978;49.118;12.146;2022-10-16T03:42:54;97547.06;;;13.84;100.00
62025;BME280;47978;49.118;12.146;2022-10-16T03:45:20;97547.06;;;13.84;100.00
62025;BME280;47978;49.118;12.146;2022-10-16T03:47:47;97549.50;;;13.85;100.00
62025;BME280;47978;49.118;12.146;2022-10-16T03:50:14;97555.88;;;13.86;100.00
62025;BME280;47978;49.118;12.146;2022-10-16T03:52:41;97542.31;;;13.84;100.00
62025;BME280;47978;49.118;12.146;2022-10-16T03:55:08;97540.03;;;13.86;100.00
62025;BME280;47978;49.118;12.146;2022-10-16T03:57:35;97539.38;;;13.81;100.00
62025;BME280;47978;49.118;12.146;2022-10-16T04:00:02;97538.06;;;13.78;100.00
62025;BME280;47978;49.118;12.146;2022-10-16T04:02:29;97536.75;;;13.76;100.00
62025;BME280;47978;49.118;12.146;2022-10-16T04:04:56;97537.56;;;13.76;100.00
62025;BME280;47978;49.118;12.146;2022-10-16T04:07:22;97536.91;;;13.70;100.00
62025;BME280;47978;49.118;12.146;2022-10-16T04:09:49;97531.50;;;13.65;100.00
62025;BME280;47978;49.118;12.146;2022-10-16T04:12:16;97541.66;;;13.61;100.00
62025;BME280;47978;49.118;12.146;2022-10-16T04:14:44;97539.53;;;13.58;100.00
62025;BME280;47978;49.118;12.146;2022-10-16T04:17:10;97559.28;;;13.57;100.00
62025;BME280;47978;49.118;12.146;2022-10-16T04:19:37;97555.38;;;13.58;100.00
62025;BME280;47978;49.118;12.146;2022-10-16T04:22:03;97568.63;;;13.61;100.00
62025;BME280;47978;49.118;12.146;2022-10-16T04:24:30;97560.44;;;13.64;100.00
62025;BME280;47978;49.118;12.146;2022-10-16T04:26:56;97571.56;;;13.64;100.00
62025;BME280;47978;49.118;12.146;2022-10-16T04:29:23;97566.31;;;13.63;100.00
62025;BME280;47978;49.118;12.146;2022-10-16T04:31:51;97559.44;;;13.60;100.00
62025;BME280;47978;49.118;12.146;2022-10-16T04:34:17;97565.84;;;13.61;100.00
62025;BME280;47978;49.118;12.146;2022-10-16T04:36:46;97563.72;;;13.58;100.00
62025;BME280;47978;49.118;12.146;2022-10-16T04:39:13;97559.78;;;13.59;100.00
62025;BME280;47978;49.118;12.146;2022-10-16T04:41:40;97567.97;;;13.55;100.00
62025;BME280;47978;49.118;12.146;2022-10-16T04:44:06;97569.09;;;13.54;100.00
62025;BME280;47978;49.118;12.146;2022-10-16T04:46:33;97570.09;;;13.58;100.00
62025;BME280;47978;49.118;12.146;2022-10-16T04:49:01;97570.41;;;13.57;100.00
62025;BME280;47978;49.118;12.146;2022-10-16T04:51:27;97568.59;;;13.52;100.00
62025;BME280;47978;49.118;12.146;2022-10-16T04:53:54;97574.81;;;13.49;100.00
62025;BME280;47978;49.118;12.146;2022-10-16T04:56:21;97581.66;;;13.52;100.00
62025;BME280;47978;49.118;12.146;2022-10-16T04:58:47;97575.28;;;13.51;100.00
62025;BME280;47978;49.118;12.146;2022-10-16T05:01:14;97576.09;;;13.52;100.00
62025;BME280;47978;49.118;12.146;2022-10-16T05:03:40;97579.38;;;13.54;100.00
62025;BME280;47978;49.118;12.146;2022-10-16T05:06:08;97578.56;;;13.53;100.00
62025;BME280;47978;49.118;12.146;2022-10-16T05:08:35;97575.78;;;13.53;100.00
62025;BME280;47978;49.118;12.146;2022-10-16T05:11:01;97574.16;;;13.52;100.00
62025;BME280;47978;49.118;12.146;2022-10-16T05:13:28;97586.91;;;13.53;100.00
62025;BME280;47978;49.118;12.146;2022-10-16T05:15:55;97582.50;;;13.52;100.00
62025;BME280;47978;49.118;12.146;2022-10-16T05:18:21;97590.50;;;13.54;100.00
62025;BME280;47978;49.118;12.146;2022-10-16T05:20:48;97596.41;;;13.52;100.00
62025;BME280;47978;49.118;12.146;2022-10-16T05:23:16;97591.31;;;13.54;100.00
62025;BME280;47978;49.118;12.146;2022-10-16T05:25:42;97586.91;;;13.53;100.00
62025;BME280;47978;49.118;12.146;2022-10-16T05:28:09;97588.53;;;13.54;100.00
62025;BME280;47978;49.118;12.146;2022-10-16T05:30:37;97587.41;;;13.55;100.00
62025;BME280;47978;49.118;12.146;2022-10-16T05:33:03;97597.88;;;13.58;100.00
62025;BME280;47978;49.118;12.146;2022-10-16T05:35:30;97593.13;;;13.59;100.00
62025;BME280;47978;49.118;12.146;2022-10-16T05:37:56;97594.44;;;13.61;100.00
62025;BME280;47978;49.118;12.146;2022-10-16T05:40:24;97594.09;;;13.63;100.00
62025;BME280;47978;49.118;12.146;2022-10-16T05:42:54;97584.31;;;13.65;100.00
62025;BME280;47978;49.118;12.146;2022-10-16T05:45:21;97595.41;;;13.65;100.00
62025;BME280;47978;49.118;12.146;2022-10-16T05:47:47;97589.22;;;13.68;100.00
62025;BME280;47978;49.118;12.146;2022-10-16T05:50:14;97571.88;;;13.71;100.00
62025;BME280;47978;49.118;12.146;2022-10-16T05:52:41;97569.63;;;13.73;100.00
62025;BME280;47978;49.118;12.146;2022-10-16T05:55:08;97563.91;;;13.79;100.00
62025;BME280;47978;49.118;12.146;2022-10-16T05:57:36;97566.03;;;13.82;100.00
62025;BME280;47978;49.118;12.146;2022-10-16T06:00:03;97566.19;;;13.85;100.00
62025;BME280;47978;49.118;12.146;2022-10-16T06:02:30;97565.53;;;13.88;100.00
62025;BME280;47978;49.118;12.146;2022-10-16T06:04:56;97562.75;;;13.88;100.00
62025;BME280;47978;49.118;12.146;2022-10-16T06:07:23;97574.38;;;13.90;100.00
62025;BME280;47978;49.118;12.146;2022-10-16T06:09:50;97581.25;;;13.84;100.00
62025;BME280;47978;49.118;12.146;2022-10-16T06:12:17;97582.72;;;13.82;100.00
62025;BME280;47978;49.118;12.146;2022-10-16T06:14:46;97594.47;;;13.79;100.00
62025;BME280;47978;49.118;12.146;2022-10-16T06:17:12;97585.63;;;13.77;100.00
62025;BME280;47978;49.118;12.146;2022-10-16T06:19:39;97591.84;;;13.82;100.00
62025;BME280;47978;49.118;12.146;2022-10-16T06:22:06;97591.53;;;13.84;100.00
62025;BME280;47978;49.118;12.146;2022-10-16T06:24:33;97602.66;;;13.84;100.00
62025;BME280;47978;49.118;12.146;2022-10-16T06:26:59;97608.22;;;13.84;100.00
62025;BME280;47978;49.118;12.146;2022-10-16T06:29:26;97604.63;;;13.92;100.00
62025;BME280;47978;49.118;12.146;2022-10-16T06:31:54;97614.28;;;13.94;100.00
62025;BME280;47978;49.118;12.146;2022-10-16T06:34:20;97620.50;;;14.00;100.00
62025;BME280;47978;49.118;12.146;2022-10-16T06:36:47;97633.78;;;14.03;100.00
62025;BME280;47978;49.118;12.146;2022-10-16T06:39:13;97647.84;;;14.07;99.79
62025;BME280;47978;49.118;12.146;2022-10-16T06:41:40;97639.31;;;14.03;99.50
62025;BME280;47978;49.118;12.146;2022-10-16T06:44:07;97651.94;;;14.09;99.47
62025;BME280;47978;49.118;12.146;2022-10-16T06:46:34;97661.75;;;14.15;99.13
62025;BME280;47978;49.118;12.146;2022-10-16T06:49:02;97652.09;;;14.13;99.77
62025;BME280;47978;49.118;12.146;2022-10-16T06:51:28;97656.69;;;14.17;99.40
62025;BME280;47978;49.118;12.146;2022-10-16T06:53:55;97666.16;;;14.16;99.32
62025;BME280;47978;49.118;12.146;2022-10-16T06:56:31;97669.28;;;14.24;98.87
62025;BME280;47978;49.118;12.146;2022-10-16T06:58:59;97682.19;;;14.37;98.81
62025;BME280;47978;49.118;12.146;2022-10-16T07:01:26;97682.03;;;14.42;99.01
62025;BME280;47978;49.118;12.146;2022-10-16T07:03:53;97688.81;;;14.58;98.31
62025;BME280;47978;49.118;12.146;2022-10-16T07:06:23;97695.69;;;14.70;97.71
62025;BME280;47978;49.118;12.146;2022-10-16T07:08:50;97690.75;;;14.75;96.77
62025;BME280;47978;49.118;12.146;2022-10-16T07:11:18;97704.19;;;14.82;96.99
62025;BME280;47978;49.118;12.146;2022-10-16T07:13:46;97706.44;;;15.06;96.27
62025;BME280;47978;49.118;12.146;2022-10-16T07:16:21;97707.44;;;15.01;97.18
62025;BME280;47978;49.118;12.146;2022-10-16T07:18:48;97704.97;;;15.09;95.85
62025;BME280;47978;49.118;12.146;2022-10-16T07:21:17;97700.69;;;15.20;94.43
62025;BME280;47978;49.118;12.146;2022-10-16T07:23:45;97691.47;;;15.28;94.22
62025;BME280;47978;49.118;12.146;2022-10-16T07:26:11;97699.38;;;15.26;94.46
62025;BME280;47978;49.118;12.146;2022-10-16T07:28:38;97702.44;;;15.33;94.63
62025;BME280;47978;49.118;12.146;2022-10-16T07:31:06;97714.09;;;15.35;94.39
62025;BME280;47978;49.118;12.146;2022-10-16T07:33:35;97712.53;;;15.55;93.62
62025;BME280;47978;49.118;12.146;2022-10-16T07:36:01;97706.03;;;15.34;93.05
62025;BME280;47978;49.118;12.146;2022-10-16T07:38:28;97706.66;;;15.48;92.76
62025;BME280;47978;49.118;12.146;2022-10-16T07:41:00;97708.28;;;15.58;92.77
62025;BME280;47978;49.118;12.146;2022-10-16T07:43:26;97717.13;;;15.68;92.28
62025;BME280;47978;49.118;12.146;2022-10-16T07:45:54;97710.53;;;15.73;91.95
62025;BME280;47978;49.118;12.146;2022-10-16T07:48:21;97712.88;;;16.01;91.49
62025;BME280;47978;49.118;12.146;2022-10-16T07:50:49;97716.94;;;16.33;90.30
62025;BME280;47978;49.118;12.146;2022-10-16T07:53:15;97721.38;;;16.34;89.13
62025;BME280;47978;49.118;12.146;2022-10-16T07:55:43;97722.38;;;16.29;88.80
62025;BME280;47978;49.118;12.146;2022-10-16T07:58:11;97725.41;;;16.45;89.30
62025;BME280;47978;49.118;12.146;2022-10-16T08:00:37;97734.19;;;16.56;87.45
62025;BME280;47978;49.118;12.146;2022-10-16T08:03:04;97733.59;;;16.71;87.43
62025;BME280;47978;49.118;12.146;2022-10-16T08:05:32;97724.47;;;16.83;85.96
62025;BME280;47978;49.118;12.146;2022-10-16T08:07:59;97722.47;;;17.04;85.37
62025;BME280;47978;49.118;12.146;2022-10-16T08:10:27;97734.25;;;17.10;84.87
62025;BME280;47978;49.118;12.146;2022-10-16T08:12:54;97733.03;;;16.99;86.10
62025;BME280;47978;49.118;12.146;2022-10-16T08:15:22;97740.25;;;17.21;85.65
62025;BME280;47978;49.118;12.146;2022-10-16T08:17:57;97742.44;;;17.15;85.58
62025;BME280;47978;49.118;12.146;2022-10-16T08:20:24;97753.88;;;17.22;84.56
62025;BME280;47978;49.118;12.146;2022-10-16T08:22:51;97748.25;;;17.43;83.46
62025;BME280;47978;49.118;12.146;2022-10-16T08:25:18;97748.81;;;17.37;83.00
62025;BME280;47978;49.118;12.146;2022-10-16T08:27:44;97753.59;;;17.36;83.74
62025;BME280;47978;49.118;12.146;2022-10-16T08:30:11;97755.53;;;17.36;83.35
62025;BME280;47978;49.118;12.146;2022-10-16T08:32:40;97760.63;;;17.21;83.59
62025;BME280;47978;49.118;12.146;2022-10-16T08:35:07;97759.34;;;16.98;84.09
62025;BME280;47978;49.118;12.146;2022-10-16T08:37:34;97766.19;;;16.88;84.58
62025;BME280;47978;49.118;12.146;2022-10-16T08:40:02;97761.34;;;16.76;85.04
62025;BME280;47978;49.118;12.146;2022-10-16T08:42:42;97767.53;;;16.82;85.42
62025;BME280;47978;49.118;12.146;2022-10-16T08:45:23;97767.47;;;16.91;85.51
62025;BME280;47978;49.118;12.146;2022-10-16T08:48:03;97759.63;;;17.05;85.82
62025;BME280;47978;49.118;12.146;2022-10-16T08:50:36;97758.09;;;17.07;85.12
62025;BME280;47978;49.118;12.146;2022-10-16T08:53:04;97750.56;;;17.08;85.30
62025;BME280;47978;49.118;12.146;2022-10-16T08:55:34;97751.19;;;17.14;83.90
62025;BME280;47978;49.118;12.146;2022-10-16T08:58:11;97745.47;;;16.89;85.48
62025;BME280;47978;49.118;12.146;2022-10-16T09:00:38;97740.66;;;16.69;85.53
62025;BME280;47978;49.118;12.146;2022-10-16T09:03:14;97744.47;;;16.64;86.15
62025;BME280;47978;49.118;12.146;2022-10-16T09:05:57;97738.38;;;16.71;86.34
62025;BME280;47978;49.118;12.146;2022-10-16T09:08:32;97747.88;;;16.49;86.48
62025;BME280;47978;49.118;12.146;2022-10-16T09:11:09;97747.94;;;16.40;87.18
62025;BME280;47978;49.118;12.146;2022-10-16T09:13:46;97755.31;;;16.36;86.78
62025;BME280;47978;49.118;12.146;2022-10-16T09:16:18;97759.56;;;16.42;87.40
62025;BME280;47978;49.118;12.146;2022-10-16T09:18:53;97762.69;;;16.40;87.16
62025;BME280;47978;49.118;12.146;2022-10-16T09:21:23;97760.41;;;16.42;87.18
62025;BME280;47978;49.118;12.146;2022-10-16T09:23:51;97764.50;;;16.45;86.89
62025;BME280;47978;49.118;12.146;2022-10-16T09:26:20;97757.00;;;16.58;86.92
62025;BME280;47978;49.118;12.146;2022-10-16T09:28:46;97759.66;;;16.75;86.39
62025;BME280;47978;49.118;12.146;2022-10-16T09:31:15;97761.22;;;16.94;85.41
62025;BME280;47978;49.118;12.146;2022-10-16T09:33:45;97758.25;;;17.11;84.36
62025;BME280;47978;49.118;12.146;2022-10-16T09:36:15;97761.25;;;17.06;84.13
62025;BME280;47978;49.118;12.146;2022-10-16T09:38:42;97760.00;;;17.16;84.54
62025;BME280;47978;49.118;12.146;2022-10-16T09:41:16;97772.03;;;17.16;83.05
62025;BME280;47978;49.118;12.146;2022-10-16T09:43:47;97780.19;;;17.21;83.67
62025;BME280;47978;49.118;12.146;2022-10-16T09:46:22;97789.97;;;17.48;82.67
62025;BME280;47978;49.118;12.146;2022-10-16T09:48:51;97791.59;;;17.49;82.78
62025;BME280;47978;49.118;12.146;2022-10-16T09:51:23;97800.66;;;17.46;82.53
62025;BME280;47978;49.118;12.146;2022-10-16T09:53:55;97797.38;;;17.44;82.86
62025;BME280;47978;49.118;12.146;2022-10-16T09:56:23;97800.69;;;17.59;82.39
62025;BME280;47978;49.118;12.146;2022-10-16T09:58:50;97789.34;;;17.76;82.88
62025;BME280;47978;49.118;12.146;2022-10-16T10:01:17;97794.41;;;17.95;81.75
62025;BME280;47978;49.118;12.146;2022-10-16T10:03:44;97803.31;;;18.09;80.20
62025;BME280;47978;49.118;12.146;2022-10-16T10:06:23;97794.94;;;18.22;79.89
62025;BME280;47978;49.118;12.146;2022-10-16T10:08:55;97800.53;;;18.34;79.91
62025;BME280;47978;49.118;12.146;2022-10-16T10:11:44;97802.75;;;18.28;80.00
62025;BME280;47978;49.118;12.146;2022-10-16T10:14:17;97804.63;;;18.36;79.12
62025;BME280;47978;49.118;12.146;2022-10-16T10:16:45;97804.38;;;18.29;77.96
62025;BME280;47978;49.118;12.146;2022-10-16T10:19:16;97795.25;;;18.32;78.63
62025;BME280;47978;49.118;12.146;2022-10-16T10:21:44;97797.13;;;18.40;78.08
62025;BME280;47978;49.118;12.146;2022-10-16T10:24:12;97800.16;;;18.60;78.84
62025;BME280;47978;49.118;12.146;2022-10-16T10:26:47;97794.44;;;18.81;78.99
62025;BME280;47978;49.118;12.146;2022-10-16T10:29:21;97783.50;;;18.76;78.17
62025;BME280;47978;49.118;12.146;2022-10-16T10:31:56;97790.44;;;18.94;78.05
62025;BME280;47978;49.118;12.146;2022-10-16T10:34:38;97784.59;;;18.99;77.93
62025;BME280;47978;49.118;12.146;2022-10-16T10:37:20;97793.22;;;19.06;76.85
62025;BME280;47978;49.118;12.146;2022-10-16T10:39:51;97793.69;;;19.08;76.95
62025;BME280;47978;49.118;12.146;2022-10-16T10:42:26;97792.88;;;19.08;76.43
62025;BME280;47978;49.118;12.146;2022-10-16T10:45:11;97795.94;;;18.91;76.32
62025;BME280;47978;49.118;12.146;2022-10-16T10:47:52;97802.03;;;18.68;77.42
62025;BME280;47978;49.118;12.146;2022-10-16T10:50:25;97796.88;;;18.58;77.87
62025;BME280;47978;49.118;12.146;2022-10-16T10:53:09;97801.69;;;18.57;77.56
62025;BME280;47978;49.118;12.146;2022-10-16T10:55:40;97799.56;;;18.66;78.40
62025;BME280;47978;49.118;12.146;2022-10-16T11:01:15;97801.47;;;18.75;77.28
62025;BME280;47978;49.118;12.146;2022-10-16T11:04:11;97802.84;;;18.81;76.59
62025;BME280;47978;49.118;12.146;2022-10-16T11:06:45;97797.00;;;18.86;75.71
62025;BME280;47978;49.118;12.146;2022-10-16T11:09:19;97795.59;;;18.92;75.79
62025;BME280;47978;49.118;12.146;2022-10-16T11:11:50;97796.72;;;19.16;74.71
62025;BME280;47978;49.118;12.146;2022-10-16T11:14:20;97799.09;;;19.01;75.88
62025;BME280;47978;49.118;12.146;2022-10-16T11:16:52;97798.03;;;18.94;75.98
62025;BME280;47978;49.118;12.146;2022-10-16T11:19:29;97797.19;;;19.05;76.19
62025;BME280;47978;49.118;12.146;2022-10-16T11:22:03;97793.91;;;19.03;75.37
62025;BME280;47978;49.118;12.146;2022-10-16T11:24:37;97799.09;;;18.89;75.84
62025;BME280;47978;49.118;12.146;2022-10-16T11:27:09;97800.91;;;19.09;75.34
62025;BME280;47978;49.118;12.146;2022-10-16T11:29:46;97799.59;;;19.19;76.32
62025;BME280;47978;49.118;12.146;2022-10-16T11:32:20;97788.91;;;19.37;75.28
62025;BME280;47978;49.118;12.146;2022-10-16T11:34:50;97784.41;;;19.48;74.75
62025;BME280;47978;49.118;12.146;2022-10-16T11:37:20;97789.47;;;19.43;75.25
62025;BME280;47978;49.118;12.146;2022-10-16T11:39:54;97788.34;;;19.31;74.93
62025;BME280;47978;49.118;12.146;2022-10-16T11:42:26;97790.00;;;19.32;75.26
62025;BME280;47978;49.118;12.146;2022-10-16T11:45:02;97789.44;;;19.15;76.06
62025;BME280;47978;49.118;12.146;2022-10-16T11:47:35;97783.59;;;19.20;76.15
62025;BME280;47978;49.118;12.146;2022-10-16T11:50:26;97791.59;;;19.05;76.51
62025;BME280;47978;49.118;12.146;2022-10-16T11:52:58;97783.44;;;19.00;76.78
62025;BME280;47978;49.118;12.146;2022-10-16T11:55:31;97787.25;;;19.08;77.43
62025;BME280;47978;49.118;12.146;2022-10-16T11:58:03;97790.97;;;19.24;77.20
62025;BME280;47978;49.118;12.146;2022-10-16T12:00:35;97787.94;;;19.17;76.08
62025;BME280;47978;49.118;12.146;2022-10-16T12:03:11;97785.69;;;19.23;75.74
62025;BME280;47978;49.118;12.146;2022-10-16T12:05:54;97780.03;;;19.35;75.79
62025;BME280;47978;49.118;12.146;2022-10-16T12:08:22;97777.91;;;19.44;75.70
62025;BME280;47978;49.118;12.146;2022-10-16T12:10:50;97780.56;;;19.53;75.20
62025;BME280;47978;49.118;12.146;2022-10-16T12:13:31;97781.91;;;19.59;75.15
62025;BME280;47978;49.118;12.146;2022-10-16T12:16:05;97774.19;;;19.68;75.40
62025;BME280;47978;49.118;12.146;2022-10-16T12:18:32;97775.25;;;19.64;74.07
62025;BME280;47978;49.118;12.146;2022-10-16T12:21:00;97776.16;;;19.68;75.35
62025;BME280;47978;49.118;12.146;2022-10-16T12:23:26;97775.28;;;19.80;75.00
62025;BME280;47978;49.118;12.146;2022-10-16T12:25:56;97775.66;;;19.78;74.98
62025;BME280;47978;49.118;12.146;2022-10-16T12:28:27;97772.56;;;19.83;75.24
62025;BME280;47978;49.118;12.146;2022-10-16T12:30:55;97761.25;;;19.80;74.84
62025;BME280;47978;49.118;12.146;2022-10-16T12:33:24;97772.84;;;19.78;74.95
62025;BME280;47978;49.118;12.146;2022-10-16T12:35:51;97766.78;;;19.76;74.47
62025;BME280;47978;49.118;12.146;2022-10-16T12:38:21;97776.22;;;19.84;74.97
62025;BME280;47978;49.118;12.146;2022-10-16T12:40:58;97774.38;;;19.91;75.04
62025;BME280;47978;49.118;12.146;2022-10-16T12:43:38;97774.22;;;19.84;74.92
62025;BME280;47978;49.118;12.146;2022-10-16T12:46:21;97773.75;;;19.82;75.38
62025;BME280;47978;49.118;12.146;2022-10-16T12:48:48;97774.66;;;19.86;75.17
62025;BME280;47978;49.118;12.146;2022-10-16T12:51:34;97774.94;;;19.81;75.94
62025;BME280;47978;49.118;12.146;2022-10-16T12:54:02;97779.09;;;19.87;74.68
62025;BME280;47978;49.118;12.146;2022-10-16T12:56:40;97781.28;;;19.94;74.33
62025;BME280;47978;49.118;12.146;2022-10-16T12:59:14;97795.41;;;19.97;75.50
62025;BME280;47978;49.118;12.146;2022-10-16T13:01:56;97788.41;;;19.91;74.51